createdAt,value
2023-04-16T15:34:35.736Z,100081.80
2023-04-16T15:37:02.291Z,100083.94
2023-04-16T15:39:28.864Z,100082.98
2023-04-16T15:42:01.543Z,100089.23
2023-04-16T15:44:31.081Z,100083.84
2023-04-16T15:46:57.614Z,100087.35
2023-04-16T15:49:24.792Z,100089.48
2023-04-16T15:51:52.012Z,100090.17
2023-04-16T15:54:18.805Z,100090.48
2023-04-16T15:56:46.615Z,100089.77
2023-04-16T15:59:13.598Z,100091.52
2023-04-16T16:01:40.257Z,100087.75
2023-04-16T16:04:08.076Z,100089.71
2023-04-16T16:06:35.043Z,100090.77
2023-04-16T16:09:01.831Z,100093.61
2023-04-16T16:11:28.425Z,100092.67
2023-04-16T16:13:55.098Z,100093.45
2023-04-16T16:16:21.923Z,100093.81
2023-04-16T16:18:48.769Z,100094.54
2023-04-16T16:21:15.207Z,100095.08
2023-04-16T16:23:42.078Z,100098.34
2023-04-16T16:26:09.239Z,100095.42
2023-04-16T16:28:37.929Z,100099.20
2023-04-16T16:31:05.955Z,100104.62
2023-04-16T16:33:32.854Z,100100.09
2023-04-16T16:35:59.334Z,100102.36
2023-04-16T16:38:25.873Z,100105.17
2023-04-16T16:40:52.348Z,100105.15
2023-04-16T16:43:18.852Z,100105.89
2023-04-16T16:45:45.339Z,100106.66
2023-04-16T16:48:11.941Z,100104.50
2023-04-16T16:50:38.541Z,100102.61
2023-04-16T16:53:05.442Z,100109.14
2023-04-16T16:55:31.891Z,100109.01
2023-04-16T16:57:58.654Z,100113.36
2023-04-16T17:00:25.558Z,100114.24
2023-04-16T17:02:52.632Z,100116.02
2023-04-16T17:05:19.900Z,100121.14
2023-04-16T17:07:46.771Z,100123.66
2023-04-16T17:10:20.074Z,100123.15
2023-04-16T17:12:49.682Z,100125.60
2023-04-16T17:15:18.578Z,100126.32
2023-04-16T17:17:47.050Z,100125.98
2023-04-16T17:20:14.328Z,100127.23
2023-04-16T17:22:41.113Z,100127.80
2023-04-16T17:25:08.285Z,100127.45
2023-04-16T17:27:34.869Z,100127.26
2023-04-16T17:30:02.095Z,100129.23
2023-04-16T17:32:29.707Z,100126.88
2023-04-16T17:34:56.554Z,100129.77
2023-04-16T17:37:23.495Z,100131.56
2023-04-16T17:39:50.491Z,100137.02
2023-04-16T17:42:17.396Z,100138.63
2023-04-16T17:44:44.169Z,100140.98
2023-04-16T17:47:10.831Z,100144.23
2023-04-16T17:49:37.319Z,100142.96
2023-04-16T17:52:04.053Z,100142.98
2023-04-16T17:54:30.613Z,100149.27
2023-04-16T17:56:57.632Z,100149.08
2023-04-16T17:59:24.193Z,100153.04
2023-04-16T18:01:50.989Z,100155.04
2023-04-16T18:04:18.152Z,100158.45
2023-04-16T18:06:45.156Z,100154.69
2023-04-16T18:09:12.168Z,100159.77
2023-04-16T18:11:38.638Z,100161.36
2023-04-16T18:14:05.253Z,100165.86
2023-04-16T18:16:32.339Z,100164.04
2023-04-16T18:18:59.125Z,100169.06
2023-04-16T18:21:26.012Z,100167.26
2023-04-16T18:23:52.460Z,100166.37
2023-04-16T18:26:22.505Z,100169.09
2023-04-16T18:28:49.483Z,100174.51
2023-04-16T18:31:18.988Z,100174.52
2023-04-16T18:33:56.449Z,100177.25
2023-04-16T18:36:23.771Z,100180.52
2023-04-16T18:39:00.905Z,100180.70
2023-04-16T18:41:28.717Z,100183.03
2023-04-16T18:43:55.388Z,100185.55
2023-04-16T18:46:21.911Z,100191.65
2023-04-16T18:48:48.481Z,100190.56
2023-04-16T18:51:16.291Z,100192.55
2023-04-16T18:53:45.437Z,100192.55
2023-04-16T18:56:12.383Z,100192.00
2023-04-16T18:58:38.864Z,100196.52
2023-04-16T19:01:07.815Z,100199.40
2023-04-16T19:03:34.586Z,100203.56
2023-04-16T19:06:01.613Z,100202.67
2023-04-16T19:08:28.136Z,100204.50
2023-04-16T19:10:54.613Z,100207.92
2023-04-16T19:13:21.301Z,100207.19
2023-04-16T19:15:47.876Z,100206.45
2023-04-16T19:18:14.375Z,100208.21
2023-04-16T19:20:40.942Z,100212.89
2023-04-16T19:23:09.166Z,100214.13
2023-04-16T19:25:36.520Z,100217.70
2023-04-16T19:28:03.886Z,100217.00
2023-04-16T19:30:31.192Z,100219.52
2023-04-16T19:32:57.890Z,100220.02
2023-04-16T19:35:24.459Z,100222.42
2023-04-16T19:37:51.202Z,100221.02
2023-04-16T19:40:17.832Z,100217.95
2023-04-16T19:42:45.688Z,100221.21
2023-04-16T19:45:12.378Z,100225.17
2023-04-16T19:47:39.061Z,100223.02
2023-04-16T19:50:06.521Z,100222.28
2023-04-16T19:52:38.631Z,100223.02
2023-04-16T19:55:06.821Z,100224.44
2023-04-16T19:57:33.512Z,100225.88
2023-04-16T20:00:00.293Z,100228.41
2023-04-16T20:02:26.977Z,100226.61
2023-04-16T20:04:53.683Z,100232.01
2023-04-16T20:07:20.598Z,100227.34
2023-04-16T20:09:47.259Z,100228.61
2023-04-16T20:12:14.391Z,100230.23
2023-04-16T20:14:41.974Z,100233.67
2023-04-16T20:17:10.058Z,100234.41
2023-04-16T20:19:39.802Z,100235.70
2023-04-16T20:22:06.680Z,100235.90
2023-04-16T20:24:33.406Z,100235.15
2023-04-16T20:27:00.118Z,100236.42
2023-04-16T20:29:27.064Z,100236.96
2023-04-16T20:31:53.528Z,100235.31
2023-04-16T20:34:20.002Z,100232.95
2023-04-16T20:36:46.508Z,100233.49
2023-04-16T20:39:13.115Z,100234.03
2023-04-16T20:41:44.077Z,100230.64
2023-04-16T20:44:18.120Z,100233.88
2023-04-16T20:46:49.435Z,100233.36
2023-04-16T20:49:17.636Z,100233.38
2023-04-16T20:51:44.205Z,100235.73
2023-04-16T20:54:11.015Z,100232.14
2023-04-16T20:56:37.519Z,100226.02
2023-04-16T20:59:04.124Z,100228.52
2023-04-16T21:01:30.928Z,100226.37
2023-04-16T21:03:57.757Z,100225.09
2023-04-16T21:06:25.033Z,100227.58
2023-04-16T21:08:51.572Z,100228.11
2023-04-16T21:11:18.140Z,100225.41
2023-04-16T21:13:44.871Z,100227.58
2023-04-16T21:16:12.444Z,100225.59
2023-04-16T21:18:39.137Z,100226.86
2023-04-16T21:21:06.028Z,100227.05
2023-04-16T21:23:32.476Z,100229.41
2023-04-16T21:25:58.918Z,100227.45
2023-04-16T21:28:25.352Z,100227.44
